sensor_id;sensor_type;location;lat;lon;timestamp;pressure;altitude;pressure_sealevel;temperature;humidity
34738;BME280;39910;47.154;27.614;2022-08-18T00:01:50;100222.56;;;22.60;100.00
34738;BME280;39910;47.154;27.614;2022-08-18T00:04:19;100219.28;;;22.53;100.00
34738;BME280;39910;47.154;27.614;2022-08-18T00:06:44;100223.19;;;22.72;100.00
34738;BME280;39910;47.154;27.614;2022-08-18T00:09:10;100220.16;;;22.64;100.00
34738;BME280;39910;47.154;27.614;2022-08-18T00:11:41;100216.28;;;22.49;100.00
34738;BME280;39910;47.154;27.614;2022-08-18T00:14:20;100230.91;;;22.53;100.00
34738;BME280;39910;47.154;27.614;2022-08-18T00:16:45;100224.66;;;22.48;100.00
34738;BME280;39910;47.154;27.614;2022-08-18T00:19:11;100231.38;;;22.45;100.00
34738;BME280;39910;47.154;27.614;2022-08-18T00:21:37;100239.88;;;21.95;100.00
34738;BME280;39910;47.154;27.614;2022-08-18T00:24:03;100240.97;;;21.94;100.00
34738;BME280;39910;47.154;27.614;2022-08-18T00:26:28;100241.94;;;21.83;100.00
34738;BME280;39910;47.154;27.614;2022-08-18T00:28:55;100247.09;;;21.84;100.00
34738;BME280;39910;47.154;27.614;2022-08-18T00:31:20;100243.81;;;22.46;100.00
34738;BME280;39910;47.154;27.614;2022-08-18T00:33:46;100233.25;;;22.40;100.00
34738;BME280;39910;47.154;27.614;2022-08-18T00:36:11;100231.66;;;22.44;100.00
34738;BME280;39910;47.154;27.614;2022-08-18T00:38:37;100230.00;;;22.38;100.00
34738;BME280;39910;47.154;27.614;2022-08-18T00:41:04;100242.41;;;22.33;100.00
34738;BME280;39910;47.154;27.614;2022-08-18T00:43:41;100243.66;;;22.58;100.00
34738;BME280;39910;47.154;27.614;2022-08-18T00:46:12;100241.69;;;22.48;100.00
34738;BME280;39910;47.154;27.614;2022-08-18T00:48:38;100242.69;;;22.37;100.00
34738;BME280;39910;47.154;27.614;2022-08-18T00:53:57;100235.94;;;22.40;100.00
34738;BME280;39910;47.154;27.614;2022-08-18T00:56:30;100235.97;;;22.45;100.00
34738;BME280;39910;47.154;27.614;2022-08-18T01:01:32;100234.31;;;22.39;100.00
34738;BME280;39910;47.154;27.614;2022-08-18T01:04:04;100242.28;;;22.55;100.00
34738;BME280;39910;47.154;27.614;2022-08-18T01:06:52;100246.50;;;22.41;100.00
34738;BME280;39910;47.154;27.614;2022-08-18T01:09:18;100234.72;;;22.57;100.00
34738;BME280;39910;47.154;27.614;2022-08-18T01:11:43;100232.47;;;22.44;100.00
34738;BME280;39910;47.154;27.614;2022-08-18T01:14:10;100231.13;;;22.47;100.00
34738;BME280;39910;47.154;27.614;2022-08-18T01:16:40;100235.97;;;22.45;100.00
34738;BME280;39910;47.154;27.614;2022-08-18T01:19:26;100238.63;;;22.34;100.00
34738;BME280;39910;47.154;27.614;2022-08-18T01:22:18;100237.03;;;22.39;100.00
34738;BME280;39910;47.154;27.614;2022-08-18T01:24:45;100222.47;;;22.45;100.00
34738;BME280;39910;47.154;27.614;2022-08-18T01:27:29;100232.09;;;22.30;100.00
34738;BME280;39910;47.154;27.614;2022-08-18T01:30:03;100234.59;;;22.37;100.00
34738;BME280;39910;47.154;27.614;2022-08-18T01:32:29;100232.75;;;22.43;100.00
34738;BME280;39910;47.154;27.614;2022-08-18T01:34:55;100239.72;;;22.39;100.00
34738;BME280;39910;47.154;27.614;2022-08-18T01:37:22;100241.84;;;22.31;100.00
34738;BME280;39910;47.154;27.614;2022-08-18T01:39:49;100243.94;;;22.24;100.00
34738;BME280;39910;47.154;27.614;2022-08-18T01:42:16;100238.38;;;22.36;100.00
34738;BME280;39910;47.154;27.614;2022-08-18T01:44:44;100248.63;;;22.39;100.00
34738;BME280;39910;47.154;27.614;2022-08-18T01:47:10;100241.03;;;22.31;100.00
34738;BME280;39910;47.154;27.614;2022-08-18T01:49:37;100237.72;;;22.24;100.00
34738;BME280;39910;47.154;27.614;2022-08-18T01:52:07;100247.59;;;22.45;100.00
34738;BME280;39910;47.154;27.614;2022-08-18T01:54:33;100245.38;;;22.37;100.00
34738;BME280;39910;47.154;27.614;2022-08-18T01:56:58;100253.00;;;22.45;100.00
34738;BME280;39910;47.154;27.614;2022-08-18T01:59:24;100252.91;;;22.30;100.00
34738;BME280;39910;47.154;27.614;2022-08-18T02:01:50;100246.91;;;22.60;100.00
34738;BME280;39910;47.154;27.614;2022-08-18T02:04:17;100245.53;;;22.57;100.00
34738;BME280;39910;47.154;27.614;2022-08-18T02:06:43;100241.97;;;22.52;100.00
34738;BME280;39910;47.154;27.614;2022-08-18T02:09:09;100251.81;;;22.68;100.00
34738;BME280;39910;47.154;27.614;2022-08-18T02:11:34;100247.78;;;22.76;100.00
34738;BME280;39910;47.154;27.614;2022-08-18T02:14:00;100242.97;;;22.83;100.00
34738;BME280;39910;47.154;27.614;2022-08-18T02:16:25;100248.72;;;22.49;100.00
34738;BME280;39910;47.154;27.614;2022-08-18T02:18:51;100253.25;;;22.39;100.00
34738;BME280;39910;47.154;27.614;2022-08-18T02:21:18;100246.34;;;22.21;100.00
34738;BME280;39910;47.154;27.614;2022-08-18T02:23:45;100253.16;;;22.28;100.00
34738;BME280;39910;47.154;27.614;2022-08-18T02:26:14;100257.31;;;22.41;100.00
34738;BME280;39910;47.154;27.614;2022-08-18T02:28:40;100259.00;;;22.52;100.00
34738;BME280;39910;47.154;27.614;2022-08-18T02:31:11;100242.56;;;22.59;100.00
34738;BME280;39910;47.154;27.614;2022-08-18T02:33:37;100251.31;;;22.71;100.00
34738;BME280;39910;47.154;27.614;2022-08-18T02:36:03;100255.09;;;22.75;100.00
34738;BME280;39910;47.154;27.614;2022-08-18T02:38:29;100250.00;;;22.79;100.00
34738;BME280;39910;47.154;27.614;2022-08-18T02:40:56;100254.03;;;22.76;100.00
34738;BME280;39910;47.154;27.614;2022-08-18T02:43:22;100261.44;;;22.91;100.00
34738;BME280;39910;47.154;27.614;2022-08-18T02:45:48;100255.22;;;22.91;100.00
34738;BME280;39910;47.154;27.614;2022-08-18T02:48:13;100260.00;;;22.83;100.00
34738;BME280;39910;47.154;27.614;2022-08-18T02:50:39;100262.38;;;22.70;100.00
34738;BME280;39910;47.154;27.614;2022-08-18T02:53:11;100257.31;;;22.83;100.00
34738;BME280;39910;47.154;27.614;2022-08-18T02:55:43;100260.63;;;22.91;100.00
34738;BME280;39910;47.154;27.614;2022-08-18T02:58:08;100264.44;;;22.95;100.00
34738;BME280;39910;47.154;27.614;2022-08-18T03:00:34;100265.53;;;22.99;100.00
34738;BME280;39910;47.154;27.614;2022-08-18T03:02:59;100270.69;;;23.00;100.00
34738;BME280;39910;47.154;27.614;2022-08-18T03:05:25;100259.09;;;23.10;100.00
34738;BME280;39910;47.154;27.614;2022-08-18T03:07:53;100270.22;;;22.71;100.00
34738;BME280;39910;47.154;27.614;2022-08-18T03:10:19;100263.66;;;22.62;100.00
34738;BME280;39910;47.154;27.614;2022-08-18T03:12:44;100272.41;;;22.74;100.00
34738;BME280;39910;47.154;27.614;2022-08-18T03:15:11;100274.94;;;22.49;100.00
34738;BME280;39910;47.154;27.614;2022-08-18T03:17:37;100282.34;;;22.64;100.00
34738;BME280;39910;47.154;27.614;2022-08-18T03:20:04;100283.72;;;22.66;100.00
34738;BME280;39910;47.154;27.614;2022-08-18T03:22:30;100290.78;;;22.72;100.00
34738;BME280;39910;47.154;27.614;2022-08-18T03:24:56;100287.19;;;22.61;100.00
34738;BME280;39910;47.154;27.614;2022-08-18T03:27:22;100287.22;;;22.67;100.00
34738;BME280;39910;47.154;27.614;2022-08-18T03:29:48;100280.25;;;22.71;100.00
34738;BME280;39910;47.154;27.614;2022-08-18T03:32:15;100286.81;;;22.85;100.00
34738;BME280;39910;47.154;27.614;2022-08-18T03:34:41;100290.78;;;22.72;100.00
34738;BME280;39910;47.154;27.614;2022-08-18T03:37:07;100282.41;;;22.74;100.00
34738;BME280;39910;47.154;27.614;2022-08-18T03:39:33;100288.25;;;22.98;100.00
34738;BME280;39910;47.154;27.614;2022-08-18T03:41:59;100286.41;;;22.66;100.00
34738;BME280;39910;47.154;27.614;2022-08-18T03:44:25;100283.00;;;22.81;100.00
34738;BME280;39910;47.154;27.614;2022-08-18T03:46:52;100283.72;;;22.66;100.00
34738;BME280;39910;47.154;27.614;2022-08-18T03:49:18;100290.91;;;22.87;100.00
34738;BME280;39910;47.154;27.614;2022-08-18T03:51:45;100291.59;;;22.73;100.00
34738;BME280;39910;47.154;27.614;2022-08-18T03:54:12;100276.78;;;22.80;100.00
34738;BME280;39910;47.154;27.614;2022-08-18T03:56:38;100281.97;;;22.87;100.00
34738;BME280;39910;47.154;27.614;2022-08-18T03:59:08;100291.06;;;22.76;100.00
34738;BME280;39910;47.154;27.614;2022-08-18T04:01:40;100289.94;;;23.09;100.00
34738;BME280;39910;47.154;27.614;2022-08-18T04:04:09;100285.84;;;23.01;100.00
34738;BME280;39910;47.154;27.614;2022-08-18T04:06:42;100282.56;;;22.94;100.00
34738;BME280;39910;47.154;27.614;2022-08-18T04:09:11;100290.47;;;23.06;100.00
34738;BME280;39910;47.154;27.614;2022-08-18T04:11:37;100282.66;;;23.09;100.00
34738;BME280;39910;47.154;27.614;2022-08-18T04:14:04;100292.09;;;23.07;100.00
34738;BME280;39910;47.154;27.614;2022-08-18T04:16:31;100288.91;;;23.15;100.00
34738;BME280;39910;47.154;27.614;2022-08-18T04:18:57;100296.44;;;23.08;100.00
34738;BME280;39910;47.154;27.614;2022-08-18T04:21:28;100301.13;;;23.23;100.00
34738;BME280;39910;47.154;27.614;2022-08-18T04:23:56;100298.59;;;23.11;100.00
34738;BME280;39910;47.154;27.614;2022-08-18T04:26:34;100299.78;;;23.35;100.00
34738;BME280;39910;47.154;27.614;2022-08-18T04:29:00;100304.09;;;23.21;100.00
34738;BME280;39910;47.154;27.614;2022-08-18T04:31:27;100295.66;;;23.17;100.00
34738;BME280;39910;47.154;27.614;2022-08-18T04:33:54;100300.53;;;23.15;100.00
34738;BME280;39910;47.154;27.614;2022-08-18T04:36:21;100297.06;;;22.83;100.00
34738;BME280;39910;47.154;27.614;2022-08-18T04:38:47;100299.69;;;23.10;100.00
34738;BME280;39910;47.154;27.614;2022-08-18T04:41:12;100297.25;;;23.13;100.00
34738;BME280;39910;47.154;27.614;2022-08-18T04:43:39;100296.44;;;23.13;100.00
34738;BME280;39910;47.154;27.614;2022-08-18T04:46:05;100305.34;;;22.66;100.00
34738;BME280;39910;47.154;27.614;2022-08-18T04:48:37;100306.31;;;22.87;100.00
34738;BME280;39910;47.154;27.614;2022-08-18T04:53:30;100300.47;;;22.68;100.00
34738;BME280;39910;47.154;27.614;2022-08-18T04:56:30;100310.38;;;22.89;100.00
34738;BME280;39910;47.154;27.614;2022-08-18T04:59:06;100296.31;;;22.87;100.00
34738;BME280;39910;47.154;27.614;2022-08-18T05:01:40;100302.59;;;22.98;100.00
34738;BME280;39910;47.154;27.614;2022-08-18T05:04:07;100306.72;;;23.11;100.00
34738;BME280;39910;47.154;27.614;2022-08-18T05:06:33;100308.41;;;23.22;100.00
34738;BME280;39910;47.154;27.614;2022-08-18T05:09:03;100310.34;;;23.32;100.00
34738;BME280;39910;47.154;27.614;2022-08-18T05:11:30;100312.44;;;23.20;100.00
34738;BME280;39910;47.154;27.614;2022-08-18T05:14:00;100315.00;;;22.89;100.00
34738;BME280;39910;47.154;27.614;2022-08-18T05:16:29;100307.69;;;22.89;100.00
34738;BME280;39910;47.154;27.614;2022-08-18T05:19:07;100305.59;;;23.02;100.00
34738;BME280;39910;47.154;27.614;2022-08-18T05:21:33;100304.44;;;23.45;100.00
34738;BME280;39910;47.154;27.614;2022-08-18T05:24:01;100310.72;;;23.51;100.00
34738;BME280;39910;47.154;27.614;2022-08-18T05:26:27;100311.44;;;23.31;100.00
34738;BME280;39910;47.154;27.614;2022-08-18T05:28:53;100307.44;;;23.54;100.00
34738;BME280;39910;47.154;27.614;2022-08-18T05:31:21;100307.88;;;23.25;100.00
34738;BME280;39910;47.154;27.614;2022-08-18T05:33:48;100304.28;;;23.67;100.00
34738;BME280;39910;47.154;27.614;2022-08-18T05:38:58;100307.53;;;23.79;100.00
34738;BME280;39910;47.154;27.614;2022-08-18T05:41:32;100310.81;;;23.76;100.00
34738;BME280;39910;47.154;27.614;2022-08-18T05:44:00;100308.66;;;23.88;100.00
34738;BME280;39910;47.154;27.614;2022-08-18T05:46:50;100312.47;;;24.08;100.00
34738;BME280;39910;47.154;27.614;2022-08-18T05:49:17;100312.19;;;23.99;100.00
34738;BME280;39910;47.154;27.614;2022-08-18T05:52:17;100307.91;;;24.59;100.00
34738;BME280;39910;47.154;27.614;2022-08-18T05:54:58;100298.44;;;24.46;100.00
34738;BME280;39910;47.154;27.614;2022-08-18T05:57:47;100311.94;;;24.21;100.00
34738;BME280;39910;47.154;27.614;2022-08-18T06:00:19;100308.19;;;24.47;100.00
34738;BME280;39910;47.154;27.614;2022-08-18T06:02:57;100311.19;;;24.46;100.00
34738;BME280;39910;47.154;27.614;2022-08-18T06:05:26;100310.38;;;24.61;100.00
34738;BME280;39910;47.154;27.614;2022-08-18T06:08:05;100310.59;;;24.85;100.00
34738;BME280;39910;47.154;27.614;2022-08-18T06:10:32;100309.97;;;25.28;100.00
34738;BME280;39910;47.154;27.614;2022-08-18T06:13:00;100317.34;;;24.97;100.00
34738;BME280;39910;47.154;27.614;2022-08-18T06:26:30;100316.66;;;27.70;100.00
34738;BME280;39910;47.154;27.614;2022-08-18T06:35:16;100322.31;;;29.50;100.00
34738;BME280;39910;47.154;27.614;2022-08-18T06:38:17;100336.22;;;31.11;100.00
34738;BME280;39910;47.154;27.614;2022-08-18T06:41:25;100325.44;;;30.30;100.00
34738;BME280;39910;47.154;27.614;2022-08-18T06:44:12;100312.56;;;28.89;100.00
34738;BME280;39910;47.154;27.614;2022-08-18T06:46:53;100325.34;;;29.21;100.00
34738;BME280;39910;47.154;27.614;2022-08-18T06:49:34;100321.16;;;28.36;100.00
34738;BME280;39910;47.154;27.614;2022-08-18T06:52:52;100327.22;;;27.76;100.00
34738;BME280;39910;47.154;27.614;2022-08-18T06:55:18;100329.66;;;27.06;100.00
34738;BME280;39910;47.154;27.614;2022-08-18T06:57:57;100324.09;;;27.16;100.00
34738;BME280;39910;47.154;27.614;2022-08-18T07:00:27;100324.31;;;27.68;100.00
34738;BME280;39910;47.154;27.614;2022-08-18T07:03:16;100331.28;;;27.55;100.00
34738;BME280;39910;47.154;27.614;2022-08-18T07:06:03;100329.19;;;27.90;100.00
34738;BME280;39910;47.154;27.614;2022-08-18T07:08:43;100325.19;;;27.82;100.00
34738;BME280;39910;47.154;27.614;2022-08-18T07:11:31;100324.31;;;27.68;100.00
34738;BME280;39910;47.154;27.614;2022-08-18T07:14:13;100330.81;;;27.48;100.00
34738;BME280;39910;47.154;27.614;2022-08-18T07:16:39;100338.50;;;27.65;100.00
34738;BME280;39910;47.154;27.614;2022-08-18T07:19:13;100337.59;;;27.50;100.00
34738;BME280;39910;47.154;27.614;2022-08-18T07:21:42;100330.22;;;27.51;100.00
34738;BME280;39910;47.154;27.614;2022-08-18T07:24:14;100332.75;;;27.66;100.00
34738;BME280;39910;47.154;27.614;2022-08-18T07:29:36;100346.28;;;27.52;100.00
34738;BME280;39910;47.154;27.614;2022-08-18T07:32:22;100339.25;;;26.98;100.00
34738;BME280;39910;47.154;27.614;2022-08-18T07:34:52;100333.59;;;27.43;100.00
34738;BME280;39910;47.154;27.614;2022-08-18T07:37:31;100342.00;;;27.22;100.00
34738;BME280;39910;47.154;27.614;2022-08-18T07:42:50;100344.34;;;27.34;100.00
34738;BME280;39910;47.154;27.614;2022-08-18T07:48:06;100333.81;;;28.46;100.00
34738;BME280;39910;47.154;27.614;2022-08-18T07:50:44;100326.97;;;29.99;100.00
34738;BME280;39910;47.154;27.614;2022-08-18T07:53:31;100330.44;;;31.21;100.00
34738;BME280;39910;47.154;27.614;2022-08-18T07:56:09;100341.78;;;31.85;100.00
34738;BME280;39910;47.154;27.614;2022-08-18T07:58:51;100334.88;;;33.63;100.00
34738;BME280;39910;47.154;27.614;2022-08-18T08:03:58;100334.44;;;35.14;100.00
34738;BME280;39910;47.154;27.614;2022-08-18T08:06:29;100336.78;;;30.90;100.00
34738;BME280;39910;47.154;27.614;2022-08-18T08:09:00;100338.19;;;31.19;100.00
34738;BME280;39910;47.154;27.614;2022-08-18T08:11:40;100335.81;;;30.86;100.00
34738;BME280;39910;47.154;27.614;2022-08-18T08:22:28;100324.06;;;30.94;100.00
34738;BME280;39910;47.154;27.614;2022-08-18T08:30:12;100322.66;;;30.21;100.00
34738;BME280;39910;47.154;27.614;2022-08-18T08:33:08;100331.44;;;30.63;100.00
34738;BME280;39910;47.154;27.614;2022-08-18T08:35:51;100335.38;;;30.48;100.00
34738;BME280;39910;47.154;27.614;2022-08-18T08:38:51;100326.38;;;29.53;100.00
34738;BME280;39910;47.154;27.614;2022-08-18T08:41:23;100326.31;;;29.66;100.00
34738;BME280;39910;47.154;27.614;2022-08-18T08:44:26;100333.25;;;29.50;100.00
34738;BME280;39910;47.154;27.614;2022-08-18T08:46:59;100327.53;;;30.10;100.00
34738;BME280;39910;47.154;27.614;2022-08-18T08:49:36;100327.34;;;29.15;100.00
34738;BME280;39910;47.154;27.614;2022-08-18T08:52:13;100323.91;;;29.37;100.00
34738;BME280;39910;47.154;27.614;2022-08-18T08:54:58;100330.81;;;30.35;100.00
34738;BME280;39910;47.154;27.614;2022-08-18T08:57:30;100327.25;;;30.57;100.00
34738;BME280;39910;47.154;27.614;2022-08-18T09:00:00;100333.28;;;31.29;100.00
34738;BME280;39910;47.154;27.614;2022-08-18T09:05:17;100326.34;;;31.41;100.00
34738;BME280;39910;47.154;27.614;2022-08-18T09:11:05;100334.50;;;30.84;100.00
34738;BME280;39910;47.154;27.614;2022-08-18T09:18:50;100330.94;;;30.83;100.00
34738;BME280;39910;47.154;27.614;2022-08-18T09:21:31;100335.38;;;31.01;100.00
34738;BME280;39910;47.154;27.614;2022-08-18T09:24:12;100325.31;;;32.02;100.00
34738;BME280;39910;47.154;27.614;2022-08-18T09:35:17;100319.00;;;31.76;100.00
34738;BME280;39910;47.154;27.614;2022-08-18T09:37:49;100321.00;;;31.35;100.00
34738;BME280;39910;47.154;27.614;2022-08-18T09:40:49;100310.78;;;32.19;100.00
34738;BME280;39910;47.154;27.614;2022-08-18T09:43:54;100320.41;;;31.56;100.00
34738;BME280;39910;47.154;27.614;2022-08-18T09:54:21;100309.88;;;31.32;100.00
34738;BME280;39910;47.154;27.614;2022-08-18T10:07:45;100308.16;;;33.34;100.00
34738;BME280;39910;47.154;27.614;2022-08-18T10:24:20;100305.16;;;31.98;100.00
34738;BME280;39910;47.154;27.614;2022-08-18T10:34:47;100294.59;;;31.48;100.00
34738;BME280;39910;47.154;27.614;2022-08-18T10:39:58;100284.13;;;32.37;100.00
34738;BME280;39910;47.154;27.614;2022-08-18T10:47:34;100294.59;;;31.40;100.00
34738;BME280;39910;47.154;27.614;2022-08-18T10:50:07;100296.13;;;31.15;100.00
34738;BME280;39910;47.154;27.614;2022-08-18T11:04:25;100286.34;;;31.31;100.00
34738;BME280;39910;47.154;27.614;2022-08-18T11:06:47;100289.53;;;30.53;100.00
34738;BME280;39910;47.154;27.614;2022-08-18T11:09:25;100290.38;;;31.42;100.00
34738;BME280;39910;47.154;27.614;2022-08-18T11:11:52;100287.19;;;31.49;100.00
34738;BME280;39910;47.154;27.614;2022-08-18T11:19:50;100270.44;;;32.11;100.00
34738;BME280;39910;47.154;27.614;2022-08-18T11:22:22;100263.50;;;31.79;100.00
34738;BME280;39910;47.154;27.614;2022-08-18T11:24:48;100268.47;;;32.37;100.00
34738;BME280;39910;47.154;27.614;2022-08-18T11:27:19;100267.69;;;32.02;100.00
34738;BME280;39910;47.154;27.614;2022-08-18T11:29:46;100266.38;;;32.26;100.00
34738;BME280;39910;47.154;27.614;2022-08-18T11:37:22;100266.00;;;32.53;100.00
34738;BME280;39910;47.154;27.614;2022-08-18T11:39:50;100260.75;;;32.13;100.00
34738;BME280;39910;47.154;27.614;2022-08-18T11:42:18;100257.03;;;32.18;100.00
34738;BME280;39910;47.154;27.614;2022-08-18T11:44:50;100251.34;;;32.23;100.00
34738;BME280;39910;47.154;27.614;2022-08-18T11:47:21;100251.72;;;31.87;100.00
34738;BME280;39910;47.154;27.614;2022-08-18T11:50:06;100253.50;;;31.74;100.00
34738;BME280;39910;47.154;27.614;2022-08-18T11:52:51;100250.75;;;31.92;100.00
34738;BME280;39910;47.154;27.614;2022-08-18T11:55:30;100251.72;;;32.04;100.00
34738;BME280;39910;47.154;27.614;2022-08-18T11:57:58;100253.69;;;32.59;100.00
34738;BME280;39910;47.154;27.614;2022-08-18T12:03:16;100247.97;;;32.26;100.00
34738;BME280;39910;47.154;27.614;2022-08-18T12:05:51;100244.63;;;33.26;100.00
34738;BME280;39910;47.154;27.614;2022-08-18T12:08:34;100239.69;;;33.20;100.00
34738;BME280;39910;47.154;27.614;2022-08-18T12:11:16;100235.09;;;31.92;100.00
34738;BME280;39910;47.154;27.614;2022-08-18T12:13:46;100230.38;;;32.27;100.00
34738;BME280;39910;47.154;27.614;2022-08-18T12:18:38;100229.28;;;33.25;100.00
34738;BME280;39910;47.154;27.614;2022-08-18T12:21:04;100228.13;;;33.56;100.00
34738;BME280;39910;47.154;27.614;2022-08-18T12:23:32;100214.88;;;33.91;98.21
34738;BME280;39910;47.154;27.614;2022-08-18T12:25:58;100219.91;;;33.06;100.00
34738;BME280;39910;47.154;27.614;2022-08-18T12:28:24;100212.28;;;32.26;100.00
34738;BME280;39910;47.154;27.614;2022-08-18T12:30:51;100223.88;;;32.87;100.00
34738;BME280;39910;47.154;27.614;2022-08-18T12:33:17;100213.13;;;33.24;100.00
34738;BME280;39910;47.154;27.614;2022-08-18T12:35:43;100220.31;;;32.31;100.00
34738;BME280;39910;47.154;27.614;2022-08-18T12:38:09;100213.25;;;33.57;98.41
34738;BME280;39910;47.154;27.614;2022-08-18T12:40:35;100208.06;;;33.05;99.44
34738;BME280;39910;47.154;27.614;2022-08-18T12:43:00;100199.59;;;32.98;99.58
34738;BME280;39910;47.154;27.614;2022-08-18T12:45:26;100204.13;;;33.77;96.44
34738;BME280;39910;47.154;27.614;2022-08-18T12:47:52;100193.41;;;33.64;97.27
34738;BME280;39910;47.154;27.614;2022-08-18T12:50:18;100196.72;;;33.15;100.00
34738;BME280;39910;47.154;27.614;2022-08-18T12:52:44;100197.25;;;33.30;100.00
34738;BME280;39910;47.154;27.614;2022-08-18T12:55:09;100196.47;;;32.70;100.00
34738;BME280;39910;47.154;27.614;2022-08-18T12:57:35;100192.38;;;33.89;100.00
34738;BME280;39910;47.154;27.614;2022-08-18T13:00:00;100197.41;;;34.20;96.53
34738;BME280;39910;47.154;27.614;2022-08-18T13:02:26;100184.06;;;33.98;98.21
34738;BME280;39910;47.154;27.614;2022-08-18T13:04:53;100190.72;;;33.76;98.95
34738;BME280;39910;47.154;27.614;2022-08-18T13:07:18;100203.44;;;33.47;100.00
34738;BME280;39910;47.154;27.614;2022-08-18T13:09:44;100194.72;;;32.95;100.00
34738;BME280;39910;47.154;27.614;2022-08-18T13:12:10;100202.72;;;32.41;100.00
34738;BME280;39910;47.154;27.614;2022-08-18T13:14:36;100195.16;;;33.06;100.00
34738;BME280;39910;47.154;27.614;2022-08-18T13:17:02;100193.16;;;33.36;100.00
34738;BME280;39910;47.154;27.614;2022-08-18T13:19:28;100197.13;;;33.68;100.00
34738;BME280;39910;47.154;27.614;2022-08-18T13:21:53;100193.72;;;33.83;100.00
34738;BME280;39910;47.154;27.614;2022-08-18T13:24:19;100202.44;;;33.52;100.00
34738;BME280;39910;47.154;27.614;2022-08-18T13:26:46;100198.91;;;33.64;100.00
34738;BME280;39910;47.154;27.614;2022-08-18T13:29:13;100195.19;;;32.97;100.00
34738;BME280;39910;47.154;27.614;2022-08-18T13:31:39;100204.34;;;33.10;100.00
34738;BME280;39910;47.154;27.614;2022-08-18T13:34:05;100219.97;;;32.50;100.00
34738;BME280;39910;47.154;27.614;2022-08-18T13:36:33;100220.19;;;32.75;100.00
34738;BME280;39910;47.154;27.614;2022-08-18T13:39:17;100220.16;;;32.45;100.00
34738;BME280;39910;47.154;27.614;2022-08-18T13:41:44;100228.00;;;32.64;100.00
34738;BME280;39910;47.154;27.614;2022-08-18T13:44:11;100223.16;;;31.62;100.00
34738;BME280;39910;47.154;27.614;2022-08-18T13:46:38;100231.56;;;31.83;100.00
34738;BME280;39910;47.154;27.614;2022-08-18T13:49:16;100235.38;;;32.25;100.00
34738;BME280;39910;47.154;27.614;2022-08-18T13:51:43;100223.78;;;32.02;100.00
34738;BME280;39910;47.154;27.614;2022-08-18T13:54:14;100238.19;;;31.82;100.00
34738;BME280;39910;47.154;27.614;2022-08-18T13:56:40;100233.81;;;31.89;100.00
34738;BME280;39910;47.154;27.614;2022-08-18T13:59:07;100234.59;;;31.47;100.00
34738;BME280;39910;47.154;27.614;2022-08-18T14:01:32;100229.91;;;31.30;100.00
34738;BME280;39910;47.154;27.614;2022-08-18T14:03:59;100243.28;;;31.23;100.00
34738;BME280;39910;47.154;27.614;2022-08-18T14:06:25;100238.25;;;30.68;100.00
34738;BME280;39910;47.154;27.614;2022-08-18T14:08:52;100244.59;;;31.43;100.00
34738;BME280;39910;47.154;27.614;2022-08-18T14:11:18;100250.19;;;30.41;100.00
34738;BME280;39910;47.154;27.614;2022-08-18T14:13:44;100248.34;;;30.59;100.00
34738;BME280;39910;47.154;27.614;2022-08-18T14:16:11;100246.38;;;30.50;100.00
34738;BME280;39910;47.154;27.614;2022-08-18T14:18:36;100258.97;;;29.07;100.00
34738;BME280;39910;47.154;27.614;2022-08-18T14:21:02;100252.50;;;28.10;100.00
34738;BME280;39910;47.154;27.614;2022-08-18T14:23:46;100250.91;;;28.42;100.00
34738;BME280;39910;47.154;27.614;2022-08-18T14:26:30;100247.34;;;28.87;100.00
34738;BME280;39910;47.154;27.614;2022-08-18T14:29:22;100247.91;;;28.84;100.00
34738;BME280;39910;47.154;27.614;2022-08-18T14:31:48;100251.97;;;28.59;100.00
34738;BME280;39910;47.154;27.614;2022-08-18T14:34:14;100242.69;;;29.65;100.00
34738;BME280;39910;47.154;27.614;2022-08-18T14:36:39;100246.69;;;29.45;100.00
34738;BME280;39910;47.154;27.614;2022-08-18T14:39:05;100238.00;;;29.80;100.00
34738;BME280;39910;47.154;27.614;2022-08-18T14:41:31;100240.03;;;29.74;100.00
34738;BME280;39910;47.154;27.614;2022-08-18T14:43:58;100241.50;;;30.16;100.00
34738;BME280;39910;47.154;27.614;2022-08-18T14:46:25;100239.44;;;31.32;100.00
34738;BME280;39910;47.154;27.614;2022-08-18T14:48:51;100238.00;;;31.70;100.00
34738;BME280;39910;47.154;27.614;2022-08-18T14:51:16;100237.00;;;31.66;100.00
34738;BME280;39910;47.154;27.614;2022-08-18T14:53:42;100234.91;;;31.71;100.00
34738;BME280;39910;47.154;27.614;2022-08-18T14:56:08;100232.03;;;31.85;100.00
34738;BME280;39910;47.154;27.614;2022-08-18T14:58:36;100228.28;;;32.15;100.00
34738;BME280;39910;47.154;27.614;2022-08-18T15:01:06;100233.78;;;32.33;100.00
34738;BME280;39910;47.154;27.614;2022-08-18T15:03:34;100228.75;;;32.35;100.00
34738;BME280;39910;47.154;27.614;2022-08-18T15:06:02;100222.03;;;31.98;100.00
34738;BME280;39910;47.154;27.614;2022-08-18T15:08:28;100222.78;;;32.15;100.00
34738;BME280;39910;47.154;27.614;2022-08-18T15:10:55;100230.22;;;32.32;100.00
34738;BME280;39910;47.154;27.614;2022-08-18T15:13:22;100229.91;;;32.08;100.00
34738;BME280;39910;47.154;27.614;2022-08-18T15:15:48;100230.69;;;32.17;100.00
34738;BME280;39910;47.154;27.614;2022-08-18T15:18:14;100237.47;;;32.20;100.00